Terminal Aerodrome Forecast
Issued by NWS

Home | Current Version | Previous Version | Graphics & Text | Print | Product List | Glossary On
Versions: 1 2 3 4 5 6 7 8 9 10 11 12 13 14 15 16 17 18 19
596
FTUS43 KGRB 151730
TAFMTW
TAF
KMTW 151730Z 1518/1618 33018G24KT P6SM BKN020
     FM152000 32014G20KT P6SM SCT025 BKN045
      TEMPO 1520/1521 BKN025
     FM152300 29006KT P6SM SCT150=

USA.gov is the U.S. government's official web portal to all federal, state and local government web resources and services.